Time;durP1;ratioP1;P1;durP2;ratioP2;P2;SDS_P1;SDS_P2;PMS_P1;PMS_P2;Temp;Humidity;BMP_temperature;BMP_pressure;BME280_temperature;BME280_humidity;BME280_pressure;Samples;Min_cycle;Max_cycle;Signal;HPM_P1;HPM_P2
2023/06/20 00:01:37;;;;;;;6.30;5.50;;;;;;;19.24;75.16;100631.34;108795;1252;70801;-75
2023/06/20 00:04:04;;;;;;;6.60;5.60;;;;;;;19.23;75.21;100634.11;108208;1253;72133;-75
2023/06/20 00:06:31;;;;;;;6.70;5.70;;;;;;;19.23;75.24;100641.52;108521;1252;62752;-74
2023/06/20 00:08:58;;;;;;;7.00;5.70;;;;;;;19.23;75.31;100644.96;109028;1253;59127;-74
2023/06/20 00:11:25;;;;;;;6.10;5.50;;;;;;;19.24;75.19;100649.63;108180;1253;73692;-75
2023/06/20 00:13:52;;;;;;;6.70;5.40;;;;;;;19.24;75.21;100646.67;108518;1256;71203;-75
2023/06/20 00:16:20;;;;;;;6.70;5.60;;;;;;;19.23;75.33;100649.94;108437;1253;71527;-74
2023/06/20 00:18:54;;;;;;;6.80;5.90;;;;;;;19.22;75.23;100650.93;108462;1252;61322;-75
2023/06/20 00:21:25;;;;;;;6.90;6.30;;;;;;;19.22;75.32;100651.95;108296;1255;61588;-76
2023/06/20 00:23:53;;;;;;;7.70;6.30;;;;;;;19.21;75.54;100654.55;108362;1252;74860;-75
2023/06/20 00:26:21;;;;;;;6.80;6.00;;;;;;;19.20;75.68;100653.66;108848;1253;69647;-75
2023/06/20 00:28:49;;;;;;;7.30;6.60;;;;;;;19.18;75.75;100648.94;108555;1252;72072;-74
2023/06/20 00:31:16;;;;;;;7.80;6.80;;;;;;;19.16;76.11;100650.46;108040;1253;62148;-76
2023/06/20 00:33:43;;;;;;;7.80;7.10;;;;;;;19.14;76.58;100651.06;108339;1252;61119;-74
2023/06/20 00:36:09;;;;;;;10.10;7.20;;;;;;;19.12;77.02;100653.23;108832;1252;74881;-75
2023/06/20 00:38:36;;;;;;;8.80;7.80;;;;;;;19.11;77.42;100654.83;108723;1252;70136;-75
2023/06/20 00:41:04;;;;;;;8.40;7.60;;;;;;;19.11;77.87;100651.16;108620;1250;73381;-75
2023/06/20 00:43:31;;;;;;;9.00;7.90;;;;;;;19.12;78.21;100653.96;108861;1253;60860;-75
2023/06/20 00:45:58;;;;;;;8.60;7.70;;;;;;;19.12;78.55;100650.31;108821;1253;59607;-76
2023/06/20 00:48:27;;;;;;;11.50;7.90;;;;;;;19.10;78.87;100646.45;108834;1250;74962;-75
2023/06/20 00:50:54;;;;;;;8.80;7.90;;;;;;;19.08;79.28;100640.78;108211;1253;71201;-74
2023/06/20 00:53:21;;;;;;;9.00;8.00;;;;;;;19.07;79.39;100639.88;108488;1252;71610;-75
2023/06/20 00:55:49;;;;;;;9.40;8.10;;;;;;;19.07;79.51;100639.07;108595;1252;62525;-74
2023/06/20 00:58:16;;;;;;;9.80;7.70;;;;;;;19.05;79.75;100639.20;108296;1252;59243;-75
2023/06/20 01:00:44;;;;;;;8.80;7.90;;;;;;;19.03;79.93;100637.30;107939;1253;75340;-74
2023/06/20 01:03:14;;;;;;;9.70;8.70;;;;;;;19.01;80.24;100640.33;108328;1254;71248;-77
2023/06/20 01:05:48;;;;;;;9.40;8.40;;;;;;;19.00;80.38;100638.85;108618;1253;72468;-76
2023/06/20 01:08:33;;;;;;;10.60;8.10;;;;;;;18.99;80.36;100635.39;108465;1253;62195;-75
2023/06/20 01:11:14;;;;;;;9.40;8.50;;;;;;;19.01;80.51;100641.23;108003;1252;59348;-76
2023/06/20 01:14:06;;;;;;;9.40;8.40;;;;;;;19.01;80.55;100638.06;107677;1253;74715;-75
2023/06/20 01:16:53;;;;;;;9.10;8.10;;;;;;;19.01;80.72;100644.41;107993;1253;69991;-75
2023/06/20 01:19:38;;;;;;;9.40;8.40;;;;;;;19.00;80.85;100639.06;108190;1253;72670;-74
2023/06/20 01:22:12;;;;;;;8.60;7.80;;;;;;;18.97;80.84;100638.77;108534;1253;61163;-74
2023/06/20 01:24:46;;;;;;;8.90;8.00;;;;;;;18.95;81.09;100641.10;108556;1250;61127;-75
2023/06/20 01:27:27;;;;;;;12.40;8.90;;;;;;;18.92;81.31;100639.77;108540;1253;73452;-75
2023/06/20 01:30:08;;;;;;;9.70;8.70;;;;;;;18.89;81.49;100642.92;108211;1256;71790;-74
2023/06/20 01:32:42;;;;;;;10.40;9.10;;;;;;;18.87;81.54;100646.58;108011;1253;70557;-74
2023/06/20 01:35:13;;;;;;;9.80;8.80;;;;;;;18.85;81.65;100639.88;108468;1253;62178;-76
2023/06/20 01:37:42;;;;;;;9.90;8.30;;;;;;;18.83;81.91;100636.92;108836;1253;60123;-75
2023/06/20 01:40:11;;;;;;;10.30;9.30;;;;;;;18.82;81.91;100633.35;108430;1252;73463;-73
2023/06/20 01:42:39;;;;;;;9.80;8.80;;;;;;;18.81;82.10;100634.61;108707;1253;69788;-74
2023/06/20 01:45:08;;;;;;;9.70;8.60;;;;;;;18.81;82.28;100636.81;108617;1252;74465;-75
2023/06/20 01:47:38;;;;;;;10.30;9.20;;;;;;;18.80;82.49;100635.46;108971;1253;60697;-75
2023/06/20 01:50:07;;;;;;;9.80;8.80;;;;;;;18.79;82.74;100638.61;108127;1252;61336;-75
2023/06/20 01:52:36;;;;;;;10.30;8.90;;;;;;;18.80;82.70;100639.59;108142;1253;74511;-74
2023/06/20 01:55:04;;;;;;;10.40;9.40;;;;;;;18.82;82.82;100635.02;108442;1252;68672;-77
2023/06/20 01:57:37;;;;;;;10.50;9.40;;;;;;;18.83;82.91;100633.79;108627;1250;73020;-75
2023/06/20 02:00:13;;;;;;;9.80;8.80;;;;;;;18.85;82.83;100633.67;108750;1253;62528;-75
2023/06/20 02:02:43;;;;;;;10.70;9.70;;;;;;;18.85;82.96;100630.89;108928;1253;60047;-75
2023/06/20 02:05:13;;;;;;;10.20;9.20;;;;;;;18.86;82.90;100623.61;108864;1252;74380;-76
2023/06/20 02:07:41;;;;;;;10.60;9.00;;;;;;;18.86;82.76;100624.31;108504;1253;70246;-73
2023/06/20 02:10:10;;;;;;;10.60;9.50;;;;;;;18.85;82.70;100632.76;108595;1252;71540;-75
2023/06/20 02:12:41;;;;;;;10.60;9.20;;;;;;;18.84;82.86;100634.14;108723;1252;62120;-75
2023/06/20 02:15:09;;;;;;;10.60;9.50;;;;;;;18.82;82.87;100634.05;108546;1253;59369;-75
2023/06/20 02:17:38;;;;;;;10.50;9.40;;;;;;;18.82;82.85;100639.69;108175;1252;73541;-77
2023/06/20 02:20:06;;;;;;;10.70;9.40;;;;;;;18.81;82.97;100637.52;107978;1253;69685;-72
2023/06/20 02:22:35;;;;;;;11.10;9.90;;;;;;;18.80;83.01;100631.90;108557;1252;72545;-75
2023/06/20 02:25:07;;;;;;;12.70;10.10;;;;;;;18.80;83.19;100625.25;108678;1250;62006;-73
2023/06/20 02:27:36;;;;;;;10.80;9.70;;;;;;;18.78;83.31;100622.23;108566;1251;59312;-75
2023/06/20 02:30:07;;;;;;;11.10;9.40;;;;;;;18.77;83.41;100616.75;108036;1252;74724;-76
2023/06/20 02:32:36;;;;;;;11.50;10.10;;;;;;;18.74;83.48;100612.98;108663;1252;69938;-76
2023/06/20 02:35:06;;;;;;;11.80;10.00;;;;;;;18.71;83.63;100616.33;108103;1253;71339;-75
2023/06/20 02:37:34;;;;;;;10.50;9.50;;;;;;;18.68;83.81;100618.03;108258;1252;63743;-75
2023/06/20 02:40:04;;;;;;;11.10;10.00;;;;;;;18.66;84.05;100621.66;107971;1257;60435;-77
2023/06/20 02:42:31;;;;;;;11.40;10.10;;;;;;;18.66;84.21;100623.70;108731;1253;75972;-76
2023/06/20 02:44:58;;;;;;;11.60;9.70;;;;;;;18.65;84.48;100627.16;108679;1251;70820;-74
2023/06/20 02:47:55;;;;;;;11.70;9.70;;;;;;;18.65;84.61;100624.61;108159;1253;71978;-75
2023/06/20 02:50:29;;;;;;;13.50;10.30;;;;;;;18.64;84.97;100625.98;108753;1251;62281;-75
2023/06/20 02:53:14;;;;;;;11.30;10.10;;;;;;;18.64;85.00;100623.95;108510;1251;60845;-76
2023/06/20 02:55:59;;;;;;;11.70;10.10;;;;;;;18.67;85.13;100623.88;108410;1252;74543;-75
2023/06/20 02:58:28;;;;;;;11.90;9.70;;;;;;;18.68;85.11;100619.80;108224;1253;71191;-75
2023/06/20 03:00:58;;;;;;;11.90;10.10;;;;;;;18.70;85.20;100621.85;108055;1256;71942;-74
2023/06/20 03:03:30;;;;;;;11.00;9.70;;;;;;;18.72;85.39;100624.48;108740;1253;62115;-76
2023/06/20 03:05:58;;;;;;;11.60;10.40;;;;;;;18.74;85.37;100623.52;108128;1253;61316;-74
2023/06/20 03:08:27;;;;;;;11.00;9.90;;;;;;;18.76;85.51;100622.17;108793;1251;74759;-74
2023/06/20 03:10:56;;;;;;;12.70;9.80;;;;;;;18.78;85.44;100622.27;108466;1253;71397;-75
2023/06/20 03:13:24;;;;;;;11.90;10.10;;;;;;;18.81;85.61;100624.45;108299;1252;72783;-74
2023/06/20 03:15:51;;;;;;;11.40;9.90;;;;;;;18.83;85.70;100623.04;108255;1253;60516;-73
2023/06/20 03:18:19;;;;;;;15.80;10.20;;;;;;;18.83;85.70;100617.98;107733;1252;61205;-74
2023/06/20 03:20:48;;;;;;;12.20;10.00;;;;;;;18.86;85.80;100619.48;108369;1251;73936;-73
2023/06/20 03:23:15;;;;;;;11.90;10.70;;;;;;;18.89;85.80;100624.61;108249;1252;68724;-75
2023/06/20 03:25:42;;;;;;;12.30;10.40;;;;;;;18.92;85.86;100630.20;108749;1252;71874;-74
2023/06/20 03:28:09;;;;;;;12.10;10.00;;;;;;;18.94;85.79;100631.08;108960;1251;61962;-74
2023/06/20 03:30:36;;;;;;;11.80;10.40;;;;;;;18.98;85.91;100629.66;108626;1251;59094;-74
2023/06/20 03:33:03;;;;;;;11.40;10.30;;;;;;;19.03;85.82;100632.34;108667;1253;74460;-74
2023/06/20 03:35:30;;;;;;;13.40;11.20;;;;;;;19.06;85.72;100627.92;108436;1252;70842;-72
2023/06/20 03:37:57;;;;;;;11.90;10.70;;;;;;;19.10;85.76;100623.71;108340;1253;71857;-73
2023/06/20 03:40:24;;;;;;;11.60;10.40;;;;;;;19.13;85.67;100624.80;108366;1252;61657;-74
2023/06/20 03:42:51;;;;;;;11.80;10.60;;;;;;;19.18;85.72;100622.21;108560;1253;59003;-75
2023/06/20 03:45:18;;;;;;;12.60;11.40;;;;;;;19.22;85.69;100623.55;108286;1253;73412;-75
2023/06/20 03:47:45;;;;;;;21.50;16.30;;;;;;;19.26;85.79;100622.34;108312;1253;69967;-76
2023/06/20 03:50:13;;;;;;;16.00;14.30;;;;;;;19.30;85.70;100621.52;108538;1252;72663;-74
2023/06/20 03:52:40;;;;;;;22.10;16.40;;;;;;;19.36;85.78;100620.48;107873;1253;61686;-74
2023/06/20 03:55:07;;;;;;;13.60;11.80;;;;;;;19.41;85.80;100625.31;108324;1252;61233;-75
2023/06/20 03:57:34;;;;;;;13.10;11.50;;;;;;;19.45;85.76;100622.14;108117;1253;73546;-74
2023/06/20 04:00:05;;;;;;;12.40;11.20;;;;;;;19.49;85.76;100625.08;108233;1253;70029;-76
2023/06/20 04:02:31;;;;;;;12.80;11.40;;;;;;;19.54;85.95;100627.60;108520;1253;72752;-75
2023/06/20 04:04:59;;;;;;;14.20;11.30;;;;;;;19.58;85.77;100633.61;108788;1252;60804;-75
2023/06/20 04:07:25;;;;;;;13.20;11.90;;;;;;;19.64;85.94;100634.54;108671;1252;59325;-75
2023/06/20 04:09:52;;;;;;;13.00;11.40;;;;;;;19.70;85.77;100635.71;108445;1253;74695;-74
2023/06/20 04:12:19;;;;;;;14.10;11.40;;;;;;;19.77;85.72;100639.95;108589;1253;71163;-74
2023/06/20 04:14:46;;;;;;;12.80;11.30;;;;;;;19.83;85.64;100637.55;108356;1253;72658;-73
2023/06/20 04:17:12;;;;;;;12.40;11.10;;;;;;;19.87;85.54;100633.98;108837;1253;62112;-74
2023/06/20 04:19:39;;;;;;;13.50;11.20;;;;;;;19.92;85.40;100630.02;108523;1253;60442;-74
2023/06/20 04:22:08;;;;;;;12.70;11.40;;;;;;;19.96;85.14;100628.62;108328;1253;74408;-73
2023/06/20 04:24:36;;;;;;;13.80;11.20;;;;;;;20.02;85.04;100639.16;108662;1253;71218;-75
2023/06/20 04:27:03;;;;;;;12.90;10.90;;;;;;;20.05;84.92;100645.30;108512;1251;72718;-74
2023/06/20 04:29:29;;;;;;;12.60;11.30;;;;;;;20.09;84.81;100649.44;108478;1252;60840;-74
2023/06/20 04:31:57;;;;;;;12.40;11.20;;;;;;;20.13;84.72;100642.84;108363;1253;60366;-74
2023/06/20 04:34:24;;;;;;;234.00;208.80;;;;;;;20.20;84.56;100638.02;108731;1251;73515;-76
2023/06/20 04:36:52;;;;;;;40.70;33.60;;;;;;;20.26;84.22;100640.52;108524;1252;71695;-77
2023/06/20 04:39:19;;;;;;;15.20;13.20;;;;;;;20.32;83.78;100639.70;108761;1253;71377;-77
2023/06/20 04:41:46;;;;;;;14.80;12.40;;;;;;;20.39;83.65;100640.47;108400;1253;63250;-77
2023/06/20 04:44:13;;;;;;;148.40;102.90;;;;;;;20.51;82.96;100633.25;108436;1252;60064;-73
2023/06/20 04:46:42;;;;;;;55.90;38.80;;;;;;;20.78;81.82;100637.57;108341;1252;73658;-75
2023/06/20 04:49:09;;;;;;;18.90;12.20;;;;;;;21.03;80.55;100645.48;108436;1251;69477;-74
2023/06/20 04:51:40;;;;;;;13.70;9.70;;;;;;;21.25;79.13;100641.05;107963;1252;72725;-75
2023/06/20 04:54:08;;;;;;;12.40;8.90;;;;;;;21.46;77.97;100639.98;108578;1256;61311;-76
2023/06/20 04:56:40;;;;;;;13.20;8.60;;;;;;;21.67;76.78;100644.31;108509;1253;61162;-76
2023/06/20 04:59:07;;;;;;;11.60;9.20;;;;;;;21.85;75.95;100641.89;108252;1253;74905;-76
2023/06/20 05:01:34;;;;;;;14.10;8.40;;;;;;;22.01;74.62;100642.46;108484;1257;70846;-77
2023/06/20 05:04:03;;;;;;;10.80;8.50;;;;;;;22.15;73.91;100644.96;108383;1252;72698;-75
2023/06/20 05:06:30;;;;;;;10.20;9.10;;;;;;;22.29;73.48;100648.76;108710;1253;61366;-76
2023/06/20 05:08:57;;;;;;;9.80;8.80;;;;;;;22.41;72.62;100650.50;108602;1253;60568;-73
2023/06/20 05:11:24;;;;;;;10.60;8.80;;;;;;;22.52;72.33;100649.96;108384;1256;74721;-77
2023/06/20 05:13:51;;;;;;;9.80;8.70;;;;;;;22.61;71.72;100654.10;108554;1252;71946;-76
2023/06/20 05:16:18;;;;;;;9.40;7.50;;;;;;;22.71;71.35;100654.63;108628;1253;70148;-75
2023/06/20 05:18:46;;;;;;;11.10;8.20;;;;;;;22.81;70.88;100655.85;108334;1253;61668;-72
2023/06/20 05:21:12;;;;;;;10.70;8.10;;;;;;;22.90;70.42;100655.70;108355;1253;61120;-77
2023/06/20 05:23:40;;;;;;;11.60;9.90;;;;;;;22.98;70.23;100660.33;108167;1253;73493;-77
2023/06/20 05:26:06;;;;;;;8.90;7.90;;;;;;;23.08;69.85;100660.69;108283;1253;70308;-77
2023/06/20 05:28:34;;;;;;;10.40;8.60;;;;;;;23.16;69.61;100664.92;108287;1253;72197;-74
2023/06/20 05:31:01;;;;;;;9.60;8.30;;;;;;;23.20;69.57;100663.05;108752;1253;62078;-76
2023/06/20 05:33:28;;;;;;;11.90;9.10;;;;;;;23.26;69.21;100666.66;108716;1253;59285;-76
2023/06/20 05:35:54;;;;;;;10.50;8.60;;;;;;;23.32;68.86;100668.88;108481;1254;75267;-75
2023/06/20 05:38:21;;;;;;;11.10;9.00;;;;;;;23.33;68.67;100670.94;108705;1256;71255;-75
2023/06/20 05:40:51;;;;;;;9.40;8.50;;;;;;;23.34;68.58;100675.64;108428;1252;72727;-76
2023/06/20 05:43:19;;;;;;;10.80;9.10;;;;;;;23.38;68.53;100673.25;108651;1252;60520;-76
2023/06/20 05:45:46;;;;;;;9.40;7.70;;;;;;;23.41;68.23;100673.70;108005;1254;61228;-74
2023/06/20 05:48:13;;;;;;;10.40;8.40;;;;;;;23.46;68.01;100670.81;108212;1253;73481;-74
2023/06/20 05:50:40;;;;;;;10.10;8.80;;;;;;;23.46;67.90;100672.60;108185;1253;71243;-74
2023/06/20 05:53:10;;;;;;;9.20;8.00;;;;;;;23.49;67.81;100679.22;108909;1254;73030;-77
2023/06/20 05:55:39;;;;;;;9.60;8.10;;;;;;;23.51;67.78;100676.73;108689;1252;61393;-72
2023/06/20 05:58:08;;;;;;;9.70;8.00;;;;;;;23.50;67.76;100684.63;108255;1255;61161;-74
2023/06/20 06:00:35;;;;;;;10.90;8.10;;;;;;;23.49;67.80;100688.85;108381;1253;74318;-75
2023/06/20 06:03:01;;;;;;;8.40;7.60;;;;;;;23.43;68.14;100704.25;108338;1253;71228;-72
2023/06/20 06:05:29;;;;;;;9.30;8.30;;;;;;;23.35;68.43;100723.41;108225;1256;75271;-73
2023/06/20 06:07:56;;;;;;;9.60;8.30;;;;;;;23.26;69.14;100715.29;108111;1257;61924;-77
2023/06/20 06:10:25;;;;;;;9.80;8.70;;;;;;;23.14;69.72;100705.66;108249;1253;61936;-76
2023/06/20 06:12:52;;;;;;;11.90;9.10;;;;;;;23.07;70.25;100711.29;108588;1252;72458;-76
2023/06/20 06:15:19;;;;;;;71.60;62.70;;;;;;;22.99;70.80;100712.13;108367;1253;69920;-76
2023/06/20 06:17:46;;;;;;;18.20;12.40;;;;;;;22.92;71.05;100712.20;108502;1253;72741;-76
2023/06/20 06:20:15;;;;;;;53.00;44.00;;;;;;;22.88;71.58;100712.27;108337;1254;61132;-74
2023/06/20 06:22:42;;;;;;;16.40;13.60;;;;;;;22.84;71.84;100715.10;108120;1253;59947;-75
2023/06/20 06:25:09;;;;;;;20.90;16.50;;;;;;;22.80;72.26;100712.20;108119;1254;73172;-76
2023/06/20 06:27:36;;;;;;;10.20;9.00;;;;;;;22.80;72.45;100710.96;108474;1253;71544;-73
2023/06/20 06:30:04;;;;;;;52.00;44.10;;;;;;;22.79;72.47;100705.70;108186;1253;71953;-72
2023/06/20 06:32:35;;;;;;;17.00;14.00;;;;;;;22.79;72.60;100705.91;108439;1253;61270;-74
2023/06/20 06:35:04;;;;;;;13.50;11.30;;;;;;;22.80;72.74;100705.98;107793;1252;61180;-75
2023/06/20 06:37:32;;;;;;;12.80;10.30;;;;;;;22.80;72.80;100712.21;107809;1254;74684;-75
2023/06/20 06:39:59;;;;;;;9.70;8.40;;;;;;;22.80;72.64;100706.09;108201;1254;71427;-76
2023/06/20 06:42:26;;;;;;;9.40;7.90;;;;;;;22.83;72.20;100697.73;107947;1252;71609;-75
2023/06/20 06:44:53;;;;;;;10.40;7.50;;;;;;;22.87;72.09;100698.36;107989;1254;60513;-75
2023/06/20 06:47:20;;;;;;;7.70;6.90;;;;;;;22.89;71.62;100692.33;107862;1257;61269;-74
2023/06/20 06:49:47;;;;;;;7.90;6.60;;;;;;;22.95;71.28;100695.45;108542;1253;61126;-75
2023/06/20 06:52:14;;;;;;;6.60;5.90;;;;;;;23.01;70.60;100697.27;108144;1254;59251;-76
2023/06/20 06:54:41;;;;;;;6.60;5.60;;;;;;;23.05;70.04;100699.36;107743;1254;72055;-75
2023/06/20 06:57:08;;;;;;;5.80;5.00;;;;;;;23.05;69.96;100697.89;108069;1256;61928;-76
2023/06/20 06:59:35;;;;;;;8.60;5.20;;;;;;;23.07;69.82;100695.75;108087;1255;61256;-74
2023/06/20 07:02:05;;;;;;;5.80;4.40;;;;;;;23.06;69.72;100697.41;107748;1253;74779;-73
2023/06/20 07:04:32;;;;;;;52.30;47.60;;;;;;;23.03;69.78;100697.08;108205;1253;71279;-76
2023/06/20 07:06:59;;;;;;;214.90;192.60;;;;;;;23.01;69.91;100696.55;108557;1253;72756;-75
2023/06/20 07:09:26;;;;;;;270.20;232.10;;;;;;;22.99;70.31;100695.98;108244;1253;62344;-74
2023/06/20 07:11:53;;;;;;;254.70;211.60;;;;;;;22.98;70.64;100694.41;108496;1253;62263;-76
2023/06/20 07:14:32;;;;;;;59.80;46.50;;;;;;;22.99;70.87;100699.52;107934;1253;73515;-76
2023/06/20 07:16:59;;;;;;;22.80;14.80;;;;;;;23.04;71.15;100703.30;107879;1258;69966;-76
2023/06/20 07:19:31;;;;;;;7.10;5.70;;;;;;;23.06;71.47;100705.69;108243;1253;72218;-76
2023/06/20 07:21:59;;;;;;;6.80;5.50;;;;;;;23.05;71.93;100705.96;108545;1255;61342;-75
2023/06/20 07:24:26;;;;;;;6.10;5.10;;;;;;;23.03;72.10;100702.05;108069;1256;59155;-75
2023/06/20 07:26:53;;;;;;;5.90;5.20;;;;;;;23.06;72.67;100700.40;108220;1254;75862;-75
2023/06/20 07:29:20;;;;;;;7.30;5.60;;;;;;;23.10;73.05;100696.86;107810;1259;69915;-75
2023/06/20 07:31:47;;;;;;;9.20;6.00;;;;;;;23.13;73.42;100698.14;108110;1252;72716;-75
2023/06/20 07:34:14;;;;;;;6.90;6.20;;;;;;;23.17;73.91;100698.81;108148;1254;61756;-75
2023/06/20 07:36:41;;;;;;;6.50;5.60;;;;;;;23.20;73.88;100699.98;108057;1254;60276;-74
2023/06/20 07:39:08;;;;;;;6.30;5.00;;;;;;;23.27;73.87;100698.94;108447;1254;73446;-74
2023/06/20 07:41:35;;;;;;;6.90;5.60;;;;;;;23.35;74.08;100699.21;108267;1254;71204;-75
2023/06/20 07:44:04;;;;;;;6.10;5.50;;;;;;;23.43;73.94;100695.80;108411;1253;73899;-76
2023/06/20 07:46:32;;;;;;;7.50;5.80;;;;;;;23.55;74.01;100696.31;108003;1253;60874;-74
2023/06/20 07:48:59;;;;;;;7.10;5.60;;;;;;;23.68;73.66;100689.83;107911;1253;61131;-75
2023/06/20 07:51:30;;;;;;;6.30;5.70;;;;;;;23.78;73.04;100686.27;107915;1253;75220;-72
2023/06/20 07:53:57;;;;;;;6.20;5.40;;;;;;;23.89;72.77;100682.55;108067;1254;70034;-73
2023/06/20 07:56:23;;;;;;;6.90;5.70;;;;;;;24.00;72.65;100678.31;108089;1253;73931;-74
2023/06/20 07:58:50;;;;;;;6.10;5.30;;;;;;;24.11;71.98;100676.08;108067;1253;61282;-75
2023/06/20 08:01:18;;;;;;;6.20;5.60;;;;;;;24.23;71.85;100677.30;108334;1256;59757;-74
2023/06/20 08:03:45;;;;;;;6.70;5.70;;;;;;;24.32;71.99;100675.22;108077;1254;75230;-75
2023/06/20 08:06:12;;;;;;;8.80;6.00;;;;;;;24.41;71.27;100676.06;108155;1254;69866;-75
2023/06/20 08:08:39;;;;;;;6.60;5.90;;;;;;;24.49;70.74;100671.86;108227;1254;72462;-74
2023/06/20 08:11:06;;;;;;;6.60;5.80;;;;;;;24.57;70.77;100670.64;108300;1254;60850;-75
2023/06/20 08:13:33;;;;;;;6.70;5.80;;;;;;;24.64;70.42;100667.99;108823;1254;58978;-74
2023/06/20 08:16:00;;;;;;;6.30;5.70;;;;;;;24.68;70.04;100671.30;108057;1253;73716;-75
2023/06/20 08:18:30;;;;;;;7.00;6.20;;;;;;;24.70;69.30;100676.89;108543;1253;70069;-75
2023/06/20 08:20:57;;;;;;;8.20;6.60;;;;;;;24.74;69.64;100672.49;108522;1252;71927;-76
2023/06/20 08:23:25;;;;;;;8.20;6.20;;;;;;;24.85;69.54;100669.48;108123;1253;60574;-75
2023/06/20 08:25:56;;;;;;;7.10;6.40;;;;;;;25.00;68.98;100659.59;108100;1253;59164;-74
2023/06/20 08:28:24;;;;;;;6.70;6.00;;;;;;;25.18;68.61;100656.48;108033;1253;76262;-74
2023/06/20 08:30:51;;;;;;;7.00;6.30;;;;;;;25.40;68.05;100651.74;108237;1253;72113;-75
2023/06/20 08:33:19;;;;;;;32.60;29.30;;;;;;;25.62;67.78;100648.27;108044;1252;72690;-74
2023/06/20 08:35:46;;;;;;;16.60;14.70;;;;;;;25.78;66.88;100645.98;107780;1252;62351;-75
2023/06/20 08:38:14;;;;;;;57.90;51.70;;;;;;;25.89;66.57;100646.83;108419;1254;59550;-75
2023/06/20 08:40:41;;;;;;;71.40;63.50;;;;;;;25.96;66.13;100650.65;108126;1254;73787;-76
2023/06/20 08:43:14;;;;;;;26.70;21.80;;;;;;;25.97;65.46;100652.60;108257;1254;71346;-75
2023/06/20 08:45:41;;;;;;;17.80;15.70;;;;;;;25.96;65.31;100651.75;108117;1254;72727;-75
2023/06/20 08:48:10;;;;;;;62.50;52.10;;;;;;;25.94;65.65;100654.09;108117;1253;63261;-74
2023/06/20 08:50:37;;;;;;;21.10;16.60;;;;;;;25.89;65.00;100653.39;108283;1255;61343;-75
2023/06/20 08:53:06;;;;;;;79.50;62.00;;;;;;;25.82;65.23;100660.03;108188;1253;75031;-75
2023/06/20 08:55:35;;;;;;;17.50;15.00;;;;;;;25.79;65.10;100655.05;108060;1254;70105;-73
2023/06/20 08:58:02;;;;;;;31.80;26.70;;;;;;;25.84;65.42;100653.50;108043;1254;70256;-76
2023/06/20 09:00:31;;;;;;;71.20;62.40;;;;;;;25.92;65.03;100649.54;107881;1254;61875;-76
2023/06/20 09:02:57;;;;;;;44.30;35.60;;;;;;;26.02;64.27;100646.93;108217;1256;60384;-74
2023/06/20 09:05:30;;;;;;;27.50;23.00;;;;;;;26.13;63.68;100641.88;108426;1254;74714;-74
2023/06/20 09:07:57;;;;;;;11.60;10.00;;;;;;;26.23;63.47;100639.96;108013;1254;71844;-76
2023/06/20 09:10:25;;;;;;;20.60;18.40;;;;;;;26.36;63.52;100644.78;107829;1251;73832;-76
2023/06/20 09:12:57;;;;;;;13.80;11.60;;;;;;;26.50;63.76;100638.54;107910;1253;61435;-75
2023/06/20 09:15:26;;;;;;;8.80;6.70;;;;;;;26.66;63.07;100640.73;107902;1251;61352;-73
2023/06/20 09:17:55;;;;;;;17.90;14.00;;;;;;;26.79;62.78;100637.09;108521;1253;76509;-75
2023/06/20 09:20:25;;;;;;;5.80;4.90;;;;;;;26.91;62.52;100638.58;107949;1254;71290;-75
2023/06/20 09:22:53;;;;;;;7.90;6.20;;;;;;;27.03;62.35;100632.27;108625;1253;72768;-76
2023/06/20 09:25:21;;;;;;;6.00;5.20;;;;;;;27.15;61.56;100635.89;107828;1254;60666;-76
2023/06/20 09:27:49;;;;;;;5.70;5.10;;;;;;;27.18;61.12;100637.23;107972;1254;61328;-73
2023/06/20 09:30:16;;;;;;;5.50;4.60;;;;;;;27.22;60.64;100639.33;107734;1254;73951;-74
2023/06/20 09:32:44;;;;;;;10.50;9.40;;;;;;;27.30;60.48;100639.88;108173;1253;71417;-75
2023/06/20 09:35:14;;;;;;;59.20;53.30;;;;;;;27.36;60.02;100641.11;108033;1254;71914;-74
2023/06/20 09:37:43;;;;;;;13.40;11.30;;;;;;;27.46;59.81;100644.98;108087;1254;61302;-71
2023/06/20 09:40:15;;;;;;;179.90;153.20;;;;;;;27.58;58.83;100645.98;108725;1253;59437;-77
2023/06/20 09:42:44;;;;;;;117.00;97.90;;;;;;;27.72;58.06;100644.67;108540;1252;74461;-76
2023/06/20 09:45:12;;;;;;;33.50;29.20;;;;;;;27.82;57.22;100646.14;108179;1252;69982;-75
2023/06/20 09:47:42;;;;;;;96.60;75.30;;;;;;;27.92;57.59;100651.96;108309;1251;72888;-73
2023/06/20 09:50:16;;;;;;;114.40;92.10;;;;;;;28.05;56.68;100651.98;108511;1254;59193;-76
2023/06/20 09:52:46;;;;;;;78.30;62.50;;;;;;;28.19;56.42;100651.67;108018;1254;60579;-74
2023/06/20 09:55:15;;;;;;;63.60;56.40;;;;;;;28.33;56.10;100648.86;108232;1254;73970;-74
2023/06/20 09:57:46;;;;;;;70.70;57.50;;;;;;;28.44;56.05;100650.16;108327;1251;71087;-74
2023/06/20 10:00:16;;;;;;;53.20;42.80;;;;;;;28.59;55.85;100650.13;108811;1252;72715;-75
2023/06/20 10:02:47;;;;;;;61.50;50.30;;;;;;;28.76;55.27;100650.02;108496;1254;61163;-73
2023/06/20 10:05:18;;;;;;;130.50;107.50;;;;;;;28.85;54.16;100649.17;107997;1252;61246;-73
2023/06/20 10:07:47;;;;;;;27.30;21.80;;;;;;;28.89;53.51;100651.77;108120;1254;74720;-74
2023/06/20 10:10:16;;;;;;;29.50;23.80;;;;;;;28.95;53.49;100651.45;108204;1254;70623;-74
2023/06/20 10:12:45;;;;;;;29.90;25.10;;;;;;;28.94;53.50;100641.59;108600;1254;72770;-75
2023/06/20 10:15:14;;;;;;;20.00;16.40;;;;;;;28.88;53.38;100631.16;108501;1254;61359;-74
2023/06/20 10:17:43;;;;;;;11.80;10.00;;;;;;;28.79;53.59;100623.77;108695;1252;61365;-75
2023/06/20 10:20:33;;;;;;;16.10;12.10;;;;;;;28.74;53.11;100614.79;108029;1254;74323;-78
2023/06/20 10:23:04;;;;;;;11.90;9.50;;;;;;;28.72;52.84;100611.11;108118;1253;70067;-73
2023/06/20 10:25:32;;;;;;;6.30;4.80;;;;;;;28.71;52.29;100603.76;108143;1253;71487;-75
2023/06/20 10:28:02;;;;;;;4.80;3.90;;;;;;;28.71;52.14;100594.43;108312;1252;61401;-76
2023/06/20 10:30:50;;;;;;;4.80;4.30;;;;;;;28.84;52.72;100594.63;108263;1253;59895;-75
2023/06/20 10:33:43;;;;;;;4.70;4.30;;;;;;;28.98;52.79;100599.52;108306;1251;75658;-78
2023/06/20 10:36:11;;;;;;;4.90;4.20;;;;;;;29.21;52.13;100598.14;108592;1253;71207;-77
2023/06/20 10:39:02;;;;;;;5.50;5.00;;;;;;;29.49;52.50;100600.58;108741;1254;72679;-75
2023/06/20 10:41:29;;;;;;;5.90;4.60;;;;;;;29.81;51.69;100592.45;108217;1253;61248;-76
2023/06/20 10:44:00;;;;;;;5.20;3.90;;;;;;;29.96;50.91;100591.31;108347;1253;61330;-75
2023/06/20 10:46:29;;;;;;;6.00;4.50;;;;;;;30.12;50.94;100593.67;108624;1253;73923;-74
2023/06/20 10:48:56;;;;;;;4.70;4.30;;;;;;;30.32;50.21;100591.05;108293;1253;70052;-75
2023/06/20 10:51:23;;;;;;;5.60;4.20;;;;;;;30.53;50.50;100592.34;108327;1253;71446;-75
2023/06/20 10:53:50;;;;;;;5.70;4.50;;;;;;;30.81;49.73;100585.39;107972;1253;62578;-75
2023/06/20 10:56:24;;;;;;;5.40;4.30;;;;;;;30.98;49.13;100579.77;108039;1254;61148;-76
2023/06/20 10:58:51;;;;;;;5.00;4.20;;;;;;;31.04;48.31;100585.23;108480;1253;73471;-73
2023/06/20 11:01:18;;;;;;;4.60;4.00;;;;;;;31.11;48.74;100590.27;108281;1252;69400;-74
2023/06/20 11:03:46;;;;;;;4.60;4.00;;;;;;;31.25;48.39;100587.25;108329;1253;71380;-74
2023/06/20 11:06:17;;;;;;;6.10;4.60;;;;;;;31.20;47.99;100580.59;108249;1252;61192;-75
2023/06/20 11:08:45;;;;;;;5.00;4.30;;;;;;;31.22;48.27;100580.05;107931;1257;61277;-74
2023/06/20 11:11:11;;;;;;;5.00;4.20;;;;;;;31.28;48.25;100578.01;108415;1254;75023;-74
2023/06/20 11:13:43;;;;;;;5.10;4.20;;;;;;;31.40;48.38;100575.54;108022;1252;69767;-74
2023/06/20 11:16:19;;;;;;;5.40;4.90;;;;;;;31.47;47.40;100584.02;108409;1253;72705;-75
2023/06/20 11:18:46;;;;;;;5.10;4.60;;;;;;;31.47;47.49;100581.00;108461;1251;62135;-75